sensor_id;sensor_type;location;lat;lon;timestamp;pressure;altitude;pressure_sealevel;temperature;humidity
60437;BME280;46289;51.992;4.498;2023-02-24T00:01:27;101908.44;;;1.00;92.30
60437;BME280;46289;51.992;4.498;2023-02-24T00:03:40;101900.66;;;1.00;92.37
60437;BME280;46289;51.992;4.498;2023-02-24T00:05:49;101911.09;;;1.03;92.58
60437;BME280;46289;51.992;4.498;2023-02-24T00:07:54;101917.22;;;1.08;92.89
60437;BME280;46289;51.992;4.498;2023-02-24T00:09:59;101914.50;;;1.02;92.00
60437;BME280;46289;51.992;4.498;2023-02-24T00:12:06;101914.50;;;1.00;92.48
60437;BME280;46289;51.992;4.498;2023-02-24T00:14:14;101905.84;;;0.98;92.07
60437;BME280;46289;51.992;4.498;2023-02-24T00:16:19;101896.31;;;0.96;92.18
60437;BME280;46289;51.992;4.498;2023-02-24T00:18:26;101895.41;;;0.94;91.96
60437;BME280;46289;51.992;4.498;2023-02-24T00:20:35;101892.81;;;0.94;92.14
60437;BME280;46289;51.992;4.498;2023-02-24T00:22:41;101881.56;;;0.92;92.31
60437;BME280;46289;51.992;4.498;2023-02-24T00:24:48;101881.56;;;0.92;91.87
60437;BME280;46289;51.992;4.498;2023-02-24T00:26:55;101876.34;;;0.88;92.42
60437;BME280;46289;51.992;4.498;2023-02-24T00:29:03;101876.34;;;0.88;92.16
60437;BME280;46289;51.992;4.498;2023-02-24T00:31:10;101884.94;;;0.84;91.53
60437;BME280;46289;51.992;4.498;2023-02-24T00:33:16;101872.78;;;0.80;92.17
60437;BME280;46289;51.992;4.498;2023-02-24T00:35:23;101873.59;;;0.78;91.97
60437;BME280;46289;51.992;4.498;2023-02-24T00:37:33;101869.19;;;0.72;91.18
60437;BME280;46289;51.992;4.498;2023-02-24T00:39:38;101865.69;;;0.69;91.83
60437;BME280;46289;51.992;4.498;2023-02-24T00:41:48;101874.28;;;0.66;92.15
60437;BME280;46289;51.992;4.498;2023-02-24T00:43:54;101865.66;;;0.67;91.96
60437;BME280;46289;51.992;4.498;2023-02-24T00:45:59;101855.31;;;0.67;92.76
60437;BME280;46289;51.992;4.498;2023-02-24T00:48:12;101865.56;;;0.61;91.88
60437;BME280;46289;51.992;4.498;2023-02-24T00:50:18;101861.16;;;0.57;91.89
60437;BME280;46289;51.992;4.498;2023-02-24T00:52:26;101858.59;;;0.57;92.67
60437;BME280;46289;51.992;4.498;2023-02-24T00:54:40;101855.09;;;0.55;92.42
60437;BME280;46289;51.992;4.498;2023-02-24T00:56:47;101850.00;;;0.59;92.39
60437;BME280;46289;51.992;4.498;2023-02-24T00:58:53;101843.03;;;0.55;92.30
60437;BME280;46289;51.992;4.498;2023-02-24T01:00:58;101830.94;;;0.54;92.67
60437;BME280;46289;51.992;4.498;2023-02-24T01:03:03;101832.59;;;0.48;91.96
60437;BME280;46289;51.992;4.498;2023-02-24T01:05:10;101839.44;;;0.46;92.17
60437;BME280;46289;51.992;4.498;2023-02-24T01:07:15;101834.28;;;0.47;92.38
60437;BME280;46289;51.992;4.498;2023-02-24T01:09:20;101834.22;;;0.42;92.03
60437;BME280;46289;51.992;4.498;2023-02-24T01:11:32;101832.41;;;0.38;92.10
60437;BME280;46289;51.992;4.498;2023-02-24T01:13:50;101817.75;;;0.39;92.51
60437;BME280;46289;51.992;4.498;2023-02-24T01:15:58;101815.16;;;0.39;92.88
60437;BME280;46289;51.992;4.498;2023-02-24T01:18:03;101820.28;;;0.34;92.62
60437;BME280;46289;51.992;4.498;2023-02-24T01:20:09;101816.75;;;0.29;92.80
60437;BME280;46289;51.992;4.498;2023-02-24T01:22:20;101813.22;;;0.24;93.18
60437;BME280;46289;51.992;4.498;2023-02-24T01:24:25;101804.50;;;0.19;92.57
60437;BME280;46289;51.992;4.498;2023-02-24T01:26:34;101801.94;;;0.20;92.80
60437;BME280;46289;51.992;4.498;2023-02-24T01:28:42;101798.44;;;0.17;92.85
60437;BME280;46289;51.992;4.498;2023-02-24T01:30:47;101800.16;;;0.16;93.19
60437;BME280;46289;51.992;4.498;2023-02-24T01:32:52;101788.94;;;0.16;92.85
60437;BME280;46289;51.992;4.498;2023-02-24T01:34:58;101786.31;;;0.14;92.74
60437;BME280;46289;51.992;4.498;2023-02-24T01:37:03;101779.34;;;0.10;92.63
60437;BME280;46289;51.992;4.498;2023-02-24T01:39:08;101779.34;;;0.10;93.07
60437;BME280;46289;51.992;4.498;2023-02-24T01:41:17;101776.75;;;0.09;92.89
60437;BME280;46289;51.992;4.498;2023-02-24T01:43:25;101765.56;;;0.08;92.57
60437;BME280;46289;51.992;4.498;2023-02-24T01:45:31;101768.13;;;0.08;92.64
60437;BME280;46289;51.992;4.498;2023-02-24T01:47:38;101754.31;;;0.08;92.90
60437;BME280;46289;51.992;4.498;2023-02-24T01:49:43;101756.03;;;0.06;92.52
60437;BME280;46289;51.992;4.498;2023-02-24T01:51:51;101750.09;;;0.11;92.43
60437;BME280;46289;51.992;4.498;2023-02-24T01:53:58;101750.91;;;0.09;92.31
60437;BME280;46289;51.992;4.498;2023-02-24T01:56:09;101744.78;;;0.04;92.19
60437;BME280;46289;51.992;4.498;2023-02-24T01:58:21;101739.56;;;0.01;92.18
60437;BME280;46289;51.992;4.498;2023-02-24T02:00:30;101752.50;;;0.02;92.27
60437;BME280;46289;51.992;4.498;2023-02-24T02:02:41;101748.28;;;0.06;92.42
60437;BME280;46289;51.992;4.498;2023-02-24T02:04:50;101740.53;;;0.06;92.52
60437;BME280;46289;51.992;4.498;2023-02-24T02:06:59;101737.91;;;0.04;91.93
60437;BME280;46289;51.992;4.498;2023-02-24T02:09:05;101733.59;;;0.03;91.95
60437;BME280;46289;51.992;4.498;2023-02-24T02:11:13;101724.13;;;0.05;91.85
60437;BME280;46289;51.992;4.498;2023-02-24T02:13:25;101736.31;;;0.11;91.54
60437;BME280;46289;51.992;4.498;2023-02-24T02:15:42;101728.56;;;0.11;91.34
60437;BME280;46289;51.992;4.498;2023-02-24T02:17:55;101727.78;;;0.16;91.07
60437;BME280;46289;51.992;4.498;2023-02-24T02:20:20;101713.88;;;0.10;90.80
60437;BME280;46289;51.992;4.498;2023-02-24T02:22:59;101717.31;;;0.10;90.87
60437;BME280;46289;51.992;4.498;2023-02-24T02:25:14;101712.94;;;0.05;90.67
60437;BME280;46289;51.992;4.498;2023-02-24T02:27:50;101713.78;;;0.04;90.38
60437;BME280;46289;51.992;4.498;2023-02-24T02:30:28;101706.81;;;-0.02;90.72
60437;BME280;46289;51.992;4.498;2023-02-24T02:35:21;101703.28;;;-0.06;90.91
60437;BME280;46289;51.992;4.498;2023-02-24T02:37:32;101692.91;;;-0.09;91.36
60437;BME280;46289;51.992;4.498;2023-02-24T02:39:47;101689.44;;;-0.09;91.15
60437;BME280;46289;51.992;4.498;2023-02-24T02:42:07;101687.81;;;-0.04;90.71
60437;BME280;46289;51.992;4.498;2023-02-24T02:44:21;101683.50;;;-0.05;91.18
60437;BME280;46289;51.992;4.498;2023-02-24T02:46:32;101689.53;;;-0.05;90.78
60437;BME280;46289;51.992;4.498;2023-02-24T02:48:46;101692.91;;;-0.09;91.09
60437;BME280;46289;51.992;4.498;2023-02-24T02:50:59;101692.03;;;-0.09;91.72
60437;BME280;46289;51.992;4.498;2023-02-24T02:53:12;101681.78;;;-0.03;92.91
60437;BME280;46289;51.992;4.498;2023-02-24T02:55:24;101671.41;;;-0.06;92.29
60437;BME280;46289;51.992;4.498;2023-02-24T02:57:34;101677.47;;;-0.04;92.34
60437;BME280;46289;51.992;4.498;2023-02-24T02:59:48;101678.34;;;-0.04;92.13
60437;BME280;46289;51.992;4.498;2023-02-24T03:01:55;101662.84;;;-0.04;91.68
60437;BME280;46289;51.992;4.498;2023-02-24T03:04:12;101656.91;;;0.02;92.92
60437;BME280;46289;51.992;4.498;2023-02-24T03:06:28;101651.78;;;0.04;92.24
60437;BME280;46289;51.992;4.498;2023-02-24T03:08:37;101647.66;;;0.16;91.55
60437;BME280;46289;51.992;4.498;2023-02-24T03:10:49;101646.84;;;0.19;90.77
60437;BME280;46289;51.992;4.498;2023-02-24T03:12:56;101648.56;;;0.20;90.99
60437;BME280;46289;51.992;4.498;2023-02-24T03:15:06;101648.59;;;0.21;90.89
60437;BME280;46289;51.992;4.498;2023-02-24T03:17:15;101644.28;;;0.22;90.79
60437;BME280;46289;51.992;4.498;2023-02-24T03:19:26;101636.66;;;0.31;90.25
60437;BME280;46289;51.992;4.498;2023-02-24T03:21:38;101635.00;;;0.35;89.78
60437;BME280;46289;51.992;4.498;2023-02-24T03:23:49;101633.28;;;0.35;89.95
60437;BME280;46289;51.992;4.498;2023-02-24T03:25:59;101624.72;;;0.39;89.95
60437;BME280;46289;51.992;4.498;2023-02-24T03:28:13;101624.81;;;0.47;89.27
60437;BME280;46289;51.992;4.498;2023-02-24T03:30:23;101619.72;;;0.52;88.90
60437;BME280;46289;51.992;4.498;2023-02-24T03:32:35;101627.44;;;0.49;89.22
60437;BME280;46289;51.992;4.498;2023-02-24T03:34:49;101615.38;;;0.49;88.89
60437;BME280;46289;51.992;4.498;2023-02-24T03:36:58;101612.84;;;0.55;88.97
60437;BME280;46289;51.992;4.498;2023-02-24T03:39:04;101607.81;;;0.64;88.79
60437;BME280;46289;51.992;4.498;2023-02-24T03:41:12;101597.50;;;0.68;89.15
60437;BME280;46289;51.992;4.498;2023-02-24T03:43:22;101599.25;;;0.70;88.65
60437;BME280;46289;51.992;4.498;2023-02-24T03:45:28;101593.19;;;0.68;89.16
60437;BME280;46289;51.992;4.498;2023-02-24T03:47:36;101597.59;;;0.75;89.04
60437;BME280;46289;51.992;4.498;2023-02-24T03:49:41;101593.41;;;0.85;87.82
60437;BME280;46289;51.992;4.498;2023-02-24T03:52:01;101587.44;;;0.91;87.66
60437;BME280;46289;51.992;4.498;2023-02-24T03:54:21;101581.38;;;0.92;87.13
60437;BME280;46289;51.992;4.498;2023-02-24T03:56:41;101577.97;;;0.93;86.76
60437;BME280;46289;51.992;4.498;2023-02-24T03:58:59;101580.56;;;0.94;87.21
60437;BME280;46289;51.992;4.498;2023-02-24T04:01:17;101574.50;;;0.92;87.38
60437;BME280;46289;51.992;4.498;2023-02-24T04:03:31;101572.00;;;1.00;87.56
60437;BME280;46289;51.992;4.498;2023-02-24T04:05:44;101570.34;;;1.06;87.22
60437;BME280;46289;51.992;4.498;2023-02-24T04:07:59;101565.25;;;1.16;85.86
60437;BME280;46289;51.992;4.498;2023-02-24T04:10:08;101567.78;;;1.09;87.07
60437;BME280;46289;51.992;4.498;2023-02-24T04:12:25;101565.19;;;1.08;87.07
60437;BME280;46289;51.992;4.498;2023-02-24T04:14:33;101566.06;;;1.10;86.24
60437;BME280;46289;51.992;4.498;2023-02-24T04:16:49;101566.91;;;1.09;87.27
60437;BME280;46289;51.992;4.498;2023-02-24T04:19:01;101558.31;;;1.13;86.32
60437;BME280;46289;51.992;4.498;2023-02-24T04:21:09;101561.88;;;1.21;85.64
60437;BME280;46289;51.992;4.498;2023-02-24T04:23:19;101561.81;;;1.18;86.12
60437;BME280;46289;51.992;4.498;2023-02-24T04:25:25;101554.88;;;1.16;86.20
60437;BME280;46289;51.992;4.498;2023-02-24T04:27:32;101551.50;;;1.20;85.67
60437;BME280;46289;51.992;4.498;2023-02-24T04:29:41;101536.78;;;1.14;86.61
60437;BME280;46289;51.992;4.498;2023-02-24T04:31:52;101538.53;;;1.17;86.07
60437;BME280;46289;51.992;4.498;2023-02-24T04:33:59;101539.38;;;1.14;86.40
60437;BME280;46289;51.992;4.498;2023-02-24T04:36:08;101535.91;;;1.15;86.40
60437;BME280;46289;51.992;4.498;2023-02-24T04:38:17;101533.31;;;1.15;87.22
60437;BME280;46289;51.992;4.498;2023-02-24T04:40:22;101527.34;;;1.22;86.17
60437;BME280;46289;51.992;4.498;2023-02-24T04:42:27;101522.19;;;1.25;86.29
60437;BME280;46289;51.992;4.498;2023-02-24T04:44:32;101526.47;;;1.20;86.59
60437;BME280;46289;51.992;4.498;2023-02-24T04:46:37;101517.03;;;1.24;86.32
60437;BME280;46289;51.992;4.498;2023-02-24T04:48:42;101509.22;;;1.21;86.61
60437;BME280;46289;51.992;4.498;2023-02-24T04:50:47;101506.66;;;1.24;86.34
60437;BME280;46289;51.992;4.498;2023-02-24T04:52:57;101504.09;;;1.27;86.26
60437;BME280;46289;51.992;4.498;2023-02-24T04:55:09;101505.88;;;1.33;85.88
60437;BME280;46289;51.992;4.498;2023-02-24T04:57:15;101500.69;;;1.33;85.99
60437;BME280;46289;51.992;4.498;2023-02-24T04:59:21;101501.56;;;1.35;86.52
60437;BME280;46289;51.992;4.498;2023-02-24T05:01:26;101492.97;;;1.39;86.11
60437;BME280;46289;51.992;4.498;2023-02-24T05:03:32;101482.63;;;1.42;86.23
60437;BME280;46289;51.992;4.498;2023-02-24T05:05:37;101482.66;;;1.46;85.43
60437;BME280;46289;51.992;4.498;2023-02-24T05:07:43;101482.66;;;1.43;85.59
60437;BME280;46289;51.992;4.498;2023-02-24T05:09:49;101492.16;;;1.43;86.15
60437;BME280;46289;51.992;4.498;2023-02-24T05:11:58;101486.97;;;1.46;86.30
60437;BME280;46289;51.992;4.498;2023-02-24T05:14:03;101480.97;;;1.51;85.66
60437;BME280;46289;51.992;4.498;2023-02-24T05:16:09;101484.44;;;1.52;85.69
60437;BME280;46289;51.992;4.498;2023-02-24T05:18:17;101478.41;;;1.58;85.87
60437;BME280;46289;51.992;4.498;2023-02-24T05:20:25;101469.81;;;1.62;85.55
60437;BME280;46289;51.992;4.498;2023-02-24T05:22:42;101471.56;;;1.64;85.53
60437;BME280;46289;51.992;4.498;2023-02-24T05:24:52;101467.25;;;1.65;85.52
60437;BME280;46289;51.992;4.498;2023-02-24T05:27:00;101456.88;;;1.65;86.14
60437;BME280;46289;51.992;4.498;2023-02-24T05:29:06;101451.72;;;1.68;86.04
60437;BME280;46289;51.992;4.498;2023-02-24T05:31:13;101448.25;;;1.66;86.14
60437;BME280;46289;51.992;4.498;2023-02-24T05:33:19;101448.25;;;1.66;86.49
60437;BME280;46289;51.992;4.498;2023-02-24T05:35:24;101444.81;;;1.70;86.44
60437;BME280;46289;51.992;4.498;2023-02-24T05:37:30;101442.25;;;1.74;85.75
60437;BME280;46289;51.992;4.498;2023-02-24T05:39:39;101441.41;;;1.75;86.27
60437;BME280;46289;51.992;4.498;2023-02-24T05:41:46;101433.63;;;1.75;86.04
60437;BME280;46289;51.992;4.498;2023-02-24T05:43:58;101425.03;;;1.80;86.21
60437;BME280;46289;51.992;4.498;2023-02-24T05:46:05;101426.75;;;1.81;86.15
60437;BME280;46289;51.992;4.498;2023-02-24T05:48:11;101430.19;;;1.77;86.26
60437;BME280;46289;51.992;4.498;2023-02-24T05:50:17;101424.13;;;1.78;86.60
60437;BME280;46289;51.992;4.498;2023-02-24T05:52:27;101410.31;;;1.82;86.39
60437;BME280;46289;51.992;4.498;2023-02-24T05:54:37;101394.78;;;1.79;86.69
60437;BME280;46289;51.992;4.498;2023-02-24T05:56:42;101393.06;;;1.84;86.67
60437;BME280;46289;51.992;4.498;2023-02-24T05:58:47;101391.38;;;1.87;86.56
60437;BME280;46289;51.992;4.498;2023-02-24T06:01:11;101382.75;;;1.90;86.46
60437;BME280;46289;51.992;4.498;2023-02-24T06:03:20;101388.81;;;1.95;86.82
60437;BME280;46289;51.992;4.498;2023-02-24T06:05:31;101387.06;;;1.91;86.93
60437;BME280;46289;51.992;4.498;2023-02-24T06:07:40;101388.78;;;1.92;86.94
60437;BME280;46289;51.992;4.498;2023-02-24T06:09:52;101379.31;;;1.92;86.63
60437;BME280;46289;51.992;4.498;2023-02-24T06:11:58;101383.63;;;1.95;87.06
60437;BME280;46289;51.992;4.498;2023-02-24T06:14:09;101378.47;;;2.04;86.49
60437;BME280;46289;51.992;4.498;2023-02-24T06:16:17;101384.50;;;2.08;86.45
60437;BME280;46289;51.992;4.498;2023-02-24T06:18:22;101381.94;;;2.18;86.45
60437;BME280;46289;51.992;4.498;2023-02-24T06:20:28;101373.38;;;2.32;85.29
60437;BME280;46289;51.992;4.498;2023-02-24T06:22:36;101361.28;;;2.40;85.93
60437;BME280;46289;51.992;4.498;2023-02-24T06:24:43;101356.09;;;2.46;85.30
60437;BME280;46289;51.992;4.498;2023-02-24T06:26:50;101360.38;;;2.47;85.21
60437;BME280;46289;51.992;4.498;2023-02-24T06:28:58;101348.31;;;2.46;85.15
60437;BME280;46289;51.992;4.498;2023-02-24T06:31:05;101343.09;;;2.49;85.29
60437;BME280;46289;51.992;4.498;2023-02-24T06:33:14;101346.56;;;2.54;85.38
60437;BME280;46289;51.992;4.498;2023-02-24T06:35:19;101340.50;;;2.55;84.85
60437;BME280;46289;51.992;4.498;2023-02-24T06:37:24;101345.69;;;2.63;85.04
60437;BME280;46289;51.992;4.498;2023-02-24T06:39:31;101344.84;;;2.66;85.34
60437;BME280;46289;51.992;4.498;2023-02-24T06:41:37;101335.31;;;2.81;84.76
60437;BME280;46289;51.992;4.498;2023-02-24T06:43:44;101334.44;;;2.84;84.67
60437;BME280;46289;51.992;4.498;2023-02-24T06:45:49;101331.00;;;2.88;84.27
60437;BME280;46289;51.992;4.498;2023-02-24T06:47:56;101341.38;;;2.90;84.53
60437;BME280;46289;51.992;4.498;2023-02-24T06:50:05;101330.97;;;2.94;84.44
60437;BME280;46289;51.992;4.498;2023-02-24T06:52:10;101324.94;;;2.95;84.18
60437;BME280;46289;51.992;4.498;2023-02-24T06:54:20;101329.25;;;3.04;83.99
60437;BME280;46289;51.992;4.498;2023-02-24T06:56:26;101328.38;;;3.10;84.00
60437;BME280;46289;51.992;4.498;2023-02-24T06:58:33;101316.22;;;3.22;83.38
60437;BME280;46289;51.992;4.498;2023-02-24T07:00:43;101309.28;;;3.26;83.80
60437;BME280;46289;51.992;4.498;2023-02-24T07:03:00;101311.88;;;3.35;83.28
60437;BME280;46289;51.992;4.498;2023-02-24T07:05:18;101311.00;;;3.42;83.57
60437;BME280;46289;51.992;4.498;2023-02-24T07:07:25;101317.88;;;3.49;83.75
60437;BME280;46289;51.992;4.498;2023-02-24T07:09:30;101315.25;;;3.56;82.80
60437;BME280;46289;51.992;4.498;2023-02-24T07:11:39;101323.03;;;3.62;82.99
60437;BME280;46289;51.992;4.498;2023-02-24T07:13:48;101326.47;;;3.67;83.07
60437;BME280;46289;51.992;4.498;2023-02-24T07:15:58;101309.09;;;3.75;82.96
60437;BME280;46289;51.992;4.498;2023-02-24T07:18:07;101306.47;;;3.78;82.58
60437;BME280;46289;51.992;4.498;2023-02-24T07:20:18;101307.34;;;3.80;82.86
60437;BME280;46289;51.992;4.498;2023-02-24T07:22:27;101302.16;;;3.80;83.12
60437;BME280;46289;51.992;4.498;2023-02-24T07:24:34;101294.34;;;3.83;83.20
60437;BME280;46289;51.992;4.498;2023-02-24T07:26:41;101283.91;;;3.86;83.20
60437;BME280;46289;51.992;4.498;2023-02-24T07:28:56;101280.44;;;3.86;83.50
60437;BME280;46289;51.992;4.498;2023-02-24T07:31:06;101276.97;;;3.90;83.51
60437;BME280;46289;51.992;4.498;2023-02-24T07:33:13;101273.50;;;3.91;83.69
60437;BME280;46289;51.992;4.498;2023-02-24T07:35:22;101266.53;;;3.91;84.28
60437;BME280;46289;51.992;4.498;2023-02-24T07:37:27;101266.50;;;3.99;83.96
60437;BME280;46289;51.992;4.498;2023-02-24T07:39:32;101269.09;;;4.01;83.34
60437;BME280;46289;51.992;4.498;2023-02-24T07:41:39;101262.13;;;4.06;83.34
60437;BME280;46289;51.992;4.498;2023-02-24T07:43:50;101267.28;;;4.12;82.57
60437;BME280;46289;51.992;4.498;2023-02-24T07:45:55;101260.31;;;4.17;82.82
60437;BME280;46289;51.992;4.498;2023-02-24T07:48:01;101262.03;;;4.20;82.63
60437;BME280;46289;51.992;4.498;2023-02-24T07:50:10;101255.13;;;4.17;83.10
60437;BME280;46289;51.992;4.498;2023-02-24T07:52:22;101259.41;;;4.21;83.51
60437;BME280;46289;51.992;4.498;2023-02-24T07:54:28;101255.94;;;4.22;83.54
60437;BME280;46289;51.992;4.498;2023-02-24T07:56:38;101246.38;;;4.27;83.32
60437;BME280;46289;51.992;4.498;2023-02-24T07:59:01;101241.13;;;4.30;83.94
60437;BME280;46289;51.992;4.498;2023-02-24T08:01:09;101257.56;;;4.34;83.97
60437;BME280;46289;51.992;4.498;2023-02-24T08:03:27;101243.72;;;4.32;84.27
60437;BME280;46289;51.992;4.498;2023-02-24T08:05:39;101242.81;;;4.37;84.84
60437;BME280;46289;51.992;4.498;2023-02-24T08:07:54;101245.38;;;4.39;84.11
60437;BME280;46289;51.992;4.498;2023-02-24T08:10:04;101234.97;;;4.40;84.31
60437;BME280;46289;51.992;4.498;2023-02-24T08:12:25;101228.88;;;4.42;84.78
60437;BME280;46289;51.992;4.498;2023-02-24T08:14:31;101230.59;;;4.46;84.75
60437;BME280;46289;51.992;4.498;2023-02-24T08:16:48;101228.81;;;4.49;84.99
60437;BME280;46289;51.992;4.498;2023-02-24T08:18:55;101242.66;;;4.53;84.70
60437;BME280;46289;51.992;4.498;2023-02-24T08:21:00;101240.06;;;4.54;85.02
60437;BME280;46289;51.992;4.498;2023-02-24T08:23:11;101239.16;;;4.58;84.61
60437;BME280;46289;51.992;4.498;2023-02-24T08:25:23;101233.97;;;4.58;85.05
60437;BME280;46289;51.992;4.498;2023-02-24T08:27:42;101233.97;;;4.57;84.86
60437;BME280;46289;51.992;4.498;2023-02-24T08:29:59;101233.91;;;4.61;85.43
60437;BME280;46289;51.992;4.498;2023-02-24T08:32:09;101231.31;;;4.60;85.47
60437;BME280;46289;51.992;4.498;2023-02-24T08:34:21;101220.88;;;4.63;85.57
60437;BME280;46289;51.992;4.498;2023-02-24T08:36:32;101212.22;;;4.64;85.46
60437;BME280;46289;51.992;4.498;2023-02-24T08:38:42;101202.66;;;4.66;85.71
60437;BME280;46289;51.992;4.498;2023-02-24T08:40:53;101210.41;;;4.69;86.02
60437;BME280;46289;51.992;4.498;2023-02-24T08:43:09;101198.22;;;4.71;85.91
60437;BME280;46289;51.992;4.498;2023-02-24T08:45:20;101198.22;;;4.74;85.78
60437;BME280;46289;51.992;4.498;2023-02-24T08:47:25;101190.41;;;4.74;85.53
60437;BME280;46289;51.992;4.498;2023-02-24T08:49:32;101186.03;;;4.78;85.62
60437;BME280;46289;51.992;4.498;2023-02-24T08:51:44;101186.91;;;4.77;85.93
60437;BME280;46289;51.992;4.498;2023-02-24T08:53:57;101182.53;;;4.79;85.83
60437;BME280;46289;51.992;4.498;2023-02-24T08:56:03;101188.59;;;4.81;85.53
60437;BME280;46289;51.992;4.498;2023-02-24T08:58:10;101175.53;;;4.84;85.64
60437;BME280;46289;51.992;4.498;2023-02-24T09:00:21;101175.56;;;4.81;85.30
60437;BME280;46289;51.992;4.498;2023-02-24T09:02:49;101182.47;;;4.83;85.25
60437;BME280;46289;51.992;4.498;2023-02-24T09:04:59;101179.03;;;4.83;84.90
60437;BME280;46289;51.992;4.498;2023-02-24T09:07:11;101185.03;;;4.87;85.75
60437;BME280;46289;51.992;4.498;2023-02-24T09:09:20;101181.59;;;4.88;85.85
60437;BME280;46289;51.992;4.498;2023-02-24T09:11:25;101186.78;;;4.88;86.19
60437;BME280;46289;51.992;4.498;2023-02-24T09:13:30;101176.34;;;4.91;86.51
60437;BME280;46289;51.992;4.498;2023-02-24T09:15:43;101178.03;;;4.92;86.63
60437;BME280;46289;51.992;4.498;2023-02-24T09:17:51;101173.59;;;5.00;86.65
60437;BME280;46289;51.992;4.498;2023-02-24T09:20:15;101167.56;;;4.98;87.01
60437;BME280;46289;51.992;4.498;2023-02-24T09:22:33;101165.78;;;5.03;87.72
60437;BME280;46289;51.992;4.498;2023-02-24T09:25:07;101153.53;;;5.08;87.52
60437;BME280;46289;51.992;4.498;2023-02-24T09:27:23;101151.81;;;5.07;87.65
60437;BME280;46289;51.992;4.498;2023-02-24T09:29:30;101146.59;;;5.07;87.94
60437;BME280;46289;51.992;4.498;2023-02-24T09:31:50;101140.53;;;5.06;88.75
60437;BME280;46289;51.992;4.498;2023-02-24T09:34:07;101140.50;;;5.10;88.63
60437;BME280;46289;51.992;4.498;2023-02-24T09:36:19;101131.78;;;5.14;88.76
60437;BME280;46289;51.992;4.498;2023-02-24T09:38:31;101136.19;;;5.09;89.27
60437;BME280;46289;51.992;4.498;2023-02-24T09:40:50;101140.50;;;5.11;89.50
60437;BME280;46289;51.992;4.498;2023-02-24T09:42:56;101130.06;;;5.10;90.41
60437;BME280;46289;51.992;4.498;2023-02-24T09:45:04;101130.16;;;5.03;91.08
60437;BME280;46289;51.992;4.498;2023-02-24T09:47:16;101125.72;;;5.10;91.59
60437;BME280;46289;51.992;4.498;2023-02-24T09:49:41;101130.88;;;5.15;91.70
60437;BME280;46289;51.992;4.498;2023-02-24T09:51:49;101118.66;;;5.18;91.94
60437;BME280;46289;51.992;4.498;2023-02-24T09:54:01;101116.06;;;5.18;92.72
60437;BME280;46289;51.992;4.498;2023-02-24T09:56:19;101121.16;;;5.27;93.21
60437;BME280;46289;51.992;4.498;2023-02-24T09:58:32;101110.63;;;5.35;93.05
60437;BME280;46289;51.992;4.498;2023-02-24T10:00:51;101114.03;;;5.39;93.47
60437;BME280;46289;51.992;4.498;2023-02-24T10:03:03;101111.44;;;5.39;93.72
60437;BME280;46289;51.992;4.498;2023-02-24T10:05:28;101112.28;;;5.41;94.40
60437;BME280;46289;51.992;4.498;2023-02-24T10:07:41;101112.28;;;5.41;94.23
60437;BME280;46289;51.992;4.498;2023-02-24T10:09:51;101113.06;;;5.46;94.38
60437;BME280;46289;51.992;4.498;2023-02-24T10:12:06;101108.66;;;5.49;94.49
60437;BME280;46289;51.992;4.498;2023-02-24T10:14:26;101104.28;;;5.53;94.85
60437;BME280;46289;51.992;4.498;2023-02-24T10:16:46;101099.09;;;5.50;94.73
60437;BME280;46289;51.992;4.498;2023-02-24T10:19:23;101099.03;;;5.55;94.67
60437;BME280;46289;51.992;4.498;2023-02-24T10:21:39;101086.78;;;5.61;94.72
60437;BME280;46289;51.992;4.498;2023-02-24T10:24:12;101084.16;;;5.61;94.72
60437;BME280;46289;51.992;4.498;2023-02-24T10:26:28;101091.06;;;5.64;94.66
60437;BME280;46289;51.992;4.498;2023-02-24T10:29:09;101077.31;;;5.54;94.96
60437;BME280;46289;51.992;4.498;2023-02-24T10:31:26;101092.03;;;5.58;95.28
60437;BME280;46289;51.992;4.498;2023-02-24T10:33:41;101075.47;;;5.61;95.53
60437;BME280;46289;51.992;4.498;2023-02-24T10:35:51;101075.50;;;5.58;95.45
60437;BME280;46289;51.992;4.498;2023-02-24T10:38:02;101081.56;;;5.61;95.60
60437;BME280;46289;51.992;4.498;2023-02-24T10:40:09;101080.53;;;5.70;95.72
60437;BME280;46289;51.992;4.498;2023-02-24T10:42:25;101080.66;;;5.64;94.93
60437;BME280;46289;51.992;4.498;2023-02-24T10:44:35;101074.56;;;5.63;95.34
60437;BME280;46289;51.992;4.498;2023-02-24T10:46:42;101074.59;;;5.60;95.71
60437;BME280;46289;51.992;4.498;2023-02-24T10:48:52;101068.41;;;5.67;95.54
60437;BME280;46289;51.992;4.498;2023-02-24T10:51:06;101071.00;;;5.67;95.76
60437;BME280;46289;51.992;4.498;2023-02-24T10:53:16;101074.66;;;5.57;95.90
60437;BME280;46289;51.992;4.498;2023-02-24T10:55:40;101079.75;;;5.65;95.97
60437;BME280;46289;51.992;4.498;2023-02-24T10:58:20;101069.38;;;5.62;95.75
60437;BME280;46289;51.992;4.498;2023-02-24T11:00:44;101070.22;;;5.64;95.54
60437;BME280;46289;51.992;4.498;2023-02-24T11:03:09;101070.28;;;5.59;95.96
60437;BME280;46289;51.992;4.498;2023-02-24T11:05:38;101072.84;;;5.62;96.01
60437;BME280;46289;51.992;4.498;2023-02-24T11:08:13;101074.56;;;5.63;96.21
60437;BME280;46289;51.992;4.498;2023-02-24T11:10:48;101078.09;;;5.59;96.02
60437;BME280;46289;51.992;4.498;2023-02-24T11:13:15;101079.81;;;5.62;96.21
60437;BME280;46289;51.992;4.498;2023-02-24T11:15:34;101071.84;;;5.69;96.09
60437;BME280;46289;51.992;4.498;2023-02-24T11:17:57;101065.75;;;5.70;95.47
60437;BME280;46289;51.992;4.498;2023-02-24T11:20:21;101059.59;;;5.75;95.95
60437;BME280;46289;51.992;4.498;2023-02-24T11:22:43;101067.44;;;5.75;95.62
60437;BME280;46289;51.992;4.498;2023-02-24T11:24:58;101057.84;;;5.75;95.53
60437;BME280;46289;51.992;4.498;2023-02-24T11:27:09;101065.66;;;5.77;95.97
60437;BME280;46289;51.992;4.498;2023-02-24T11:32:04;101049.19;;;5.73;96.45
60437;BME280;46289;51.992;4.498;2023-02-24T11:34:22;101050.09;;;5.70;96.22
60437;BME280;46289;51.992;4.498;2023-02-24T11:36:44;101047.44;;;5.75;96.32
60437;BME280;46289;51.992;4.498;2023-02-24T11:39:04;101031.84;;;5.72;96.16
60437;BME280;46289;51.992;4.498;2023-02-24T11:41:26;101024.94;;;5.69;96.84